KSGR/SGR METAR and TAF weather

Enter ICAO airport designator
Station Type Date Time Source
KSGR METAR 2021/09/24 01:53 UTC NOAA

KSGR 240153Z 15007KT 10SM CLR 22/13 A3004 RMK AO2 SLP175 T02170133


Station Type Date Time Source
KSGR Decoded METAR 2021/09/24 01:53 UTC NOAA

SUGARLAND REGIONAL AIRPORT, TX, United States (KSGR) 29-37N 095-39W
Sep 23, 2021 - 09:53 PM EDT / 2021.09.24 0153 UTC
Wind: from the SSE (150 degrees) at 8 MPH (7 KT):0
Visibility: 10 mile(s):0
Sky conditions: clear
Temperature: 71.1 F (21.7 C)
Dew Point: 55.9 F (13.3 C)
Relative Humidity: 58%
Pressure (altimeter): 30.04 in. Hg (1017 hPa)
ob: KSGR 240153Z 15007KT 10SM CLR 22/13 A3004 RMK AO2 SLP175 T02170133
cycle: 2

Station Type Date Time Source
KSGR TAF 2021/09/23 18:36 UTC NOAA

TAF KSGR 231733Z 2318/2418 10007KT P6SM SKC
FM240100 VRB04KT P6SM SKC

Example: see airport list